createdAt,value
2023-04-26T00:00:33.946Z,6.97
2023-04-26T00:02:56.262Z,7.13
2023-04-26T00:05:19.605Z,7.77
2023-04-26T00:07:42.550Z,6.73
2023-04-26T00:10:05.817Z,7.53
2023-04-26T00:12:28.138Z,7.97
2023-04-26T00:15:09.464Z,7.90
2023-04-26T00:17:31.786Z,7.10
2023-04-26T00:19:54.086Z,6.93
2023-04-26T00:22:16.373Z,6.83
2023-04-26T00:24:38.595Z,7.43
2023-04-26T00:27:01.501Z,7.43
2023-04-26T00:29:23.790Z,7.17
2023-04-26T00:31:46.033Z,7.13
2023-04-26T00:34:08.527Z,7.87
2023-04-26T00:36:32.321Z,6.87
2023-04-26T00:38:54.871Z,6.17
2023-04-26T00:41:17.459Z,6.73
2023-04-26T00:43:40.888Z,7.07
2023-04-26T00:46:03.496Z,6.20
2023-04-26T00:48:26.319Z,7.30
2023-04-26T00:50:48.998Z,7.23
2023-04-26T00:53:14.498Z,6.77
2023-04-26T00:55:37.097Z,5.87
2023-04-26T00:57:59.356Z,5.90
2023-04-26T01:00:21.696Z,6.13
2023-04-26T01:02:44.140Z,6.33
2023-04-26T01:05:06.975Z,6.43
2023-04-26T01:07:29.377Z,6.43
2023-04-26T01:09:51.956Z,6.63
2023-04-26T01:12:14.726Z,6.70
2023-04-26T01:14:37.072Z,7.47
2023-04-26T01:16:59.726Z,7.80
2023-04-26T01:19:22.167Z,7.30
2023-04-26T01:21:44.814Z,6.63
2023-04-26T01:24:08.163Z,6.73
2023-04-26T01:26:30.440Z,7.43
2023-04-26T01:28:52.830Z,6.77
2023-04-26T01:31:16.125Z,7.23
2023-04-26T01:33:38.594Z,6.27
2023-04-26T01:36:00.836Z,6.63
2023-04-26T01:38:24.638Z,6.47
2023-04-26T01:40:49.792Z,6.63
2023-04-26T01:43:12.496Z,6.50
2023-04-26T01:45:34.790Z,7.27
2023-04-26T01:48:16.474Z,6.77
2023-04-26T01:50:38.920Z,6.80
2023-04-26T01:53:01.342Z,7.00
2023-04-26T01:55:23.855Z,6.60
2023-04-26T01:57:46.401Z,6.80
2023-04-26T02:00:09.233Z,6.90
2023-04-26T02:02:37.602Z,6.53
2023-04-26T02:05:00.249Z,7.03
2023-04-26T02:07:22.642Z,6.13
2023-04-26T02:09:46.447Z,6.63
2023-04-26T02:12:08.746Z,6.87
2023-04-26T02:14:31.020Z,7.30
2023-04-26T02:16:53.418Z,6.73
2023-04-26T02:19:15.760Z,6.73
2023-04-26T02:21:58.464Z,8.20
2023-04-26T02:24:22.160Z,8.00
2023-04-26T02:26:44.528Z,6.20
2023-04-26T02:29:07.335Z,6.93
2023-04-26T02:31:29.580Z,7.03
2023-04-26T02:33:52.033Z,7.23
2023-04-26T02:36:14.560Z,6.70
2023-04-26T02:38:37.073Z,6.53
2023-04-26T02:41:04.479Z,6.63
2023-04-26T02:43:27.176Z,7.10
2023-04-26T02:45:50.835Z,6.23
2023-04-26T02:48:13.150Z,7.27
2023-04-26T02:50:36.285Z,6.43
2023-04-26T02:52:59.087Z,7.63
2023-04-26T02:55:22.037Z,8.57
2023-04-26T02:57:44.544Z,7.50
2023-04-26T03:00:08.991Z,7.10
2023-04-26T03:02:31.597Z,6.63
2023-04-26T03:04:54.410Z,6.43
2023-04-26T03:07:17.346Z,6.47
2023-04-26T03:09:39.777Z,6.70
2023-04-26T03:12:03.278Z,7.27
2023-04-26T03:14:28.645Z,6.50
2023-04-26T03:16:55.805Z,6.60
2023-04-26T03:19:18.467Z,7.10
2023-04-26T03:21:42.169Z,6.83
2023-04-26T03:24:05.021Z,7.13
2023-04-26T03:26:27.570Z,8.50
2023-04-26T03:28:50.663Z,6.53
2023-04-26T03:31:13.292Z,7.83
2023-04-26T03:33:42.185Z,7.17
2023-04-26T03:36:04.906Z,8.50
2023-04-26T03:38:27.202Z,8.27
2023-04-26T03:40:50.147Z,7.77
2023-04-26T03:43:12.480Z,7.47
2023-04-26T03:45:37.561Z,7.53
2023-04-26T03:48:00.201Z,6.57
2023-04-26T03:50:23.388Z,7.73
2023-04-26T03:52:46.044Z,8.00
2023-04-26T03:55:10.145Z,7.50
2023-04-26T03:57:32.734Z,7.07
2023-04-26T03:59:57.091Z,6.63
2023-04-26T04:02:19.592Z,6.73
2023-04-26T04:04:42.464Z,7.93
2023-04-26T04:07:05.339Z,6.97
2023-04-26T04:09:28.670Z,7.53
2023-04-26T04:11:51.011Z,7.73
2023-04-26T04:14:13.628Z,7.13
2023-04-26T04:16:35.992Z,7.20
2023-04-26T04:18:58.912Z,8.23
2023-04-26T04:21:21.393Z,8.07
2023-04-26T04:23:44.609Z,7.77
2023-04-26T04:26:08.976Z,8.17
2023-04-26T04:28:32.097Z,7.67
2023-04-26T04:30:54.388Z,7.57
2023-04-26T04:33:17.762Z,7.50
2023-04-26T04:35:42.010Z,7.90
2023-04-26T04:38:04.582Z,8.03
2023-04-26T04:40:28.270Z,8.40
2023-04-26T04:42:55.959Z,8.37
2023-04-26T04:45:21.705Z,8.87
2023-04-26T04:47:45.452Z,8.30
2023-04-26T04:50:08.215Z,8.03
2023-04-26T04:52:30.790Z,8.80
2023-04-26T04:54:53.175Z,8.27
2023-04-26T04:57:16.676Z,8.40
2023-04-26T04:59:40.411Z,8.60
2023-04-26T05:02:03.056Z,7.27
2023-04-26T05:04:26.925Z,8.20
2023-04-26T05:06:49.566Z,7.90
2023-04-26T05:09:11.772Z,7.93
2023-04-26T05:11:34.203Z,8.87
2023-04-26T05:13:57.689Z,7.90
2023-04-26T05:16:20.582Z,8.27
2023-04-26T05:18:43.758Z,8.07
2023-04-26T05:21:06.138Z,7.80
2023-04-26T05:23:28.451Z,7.20
2023-04-26T05:25:56.281Z,7.20
2023-04-26T05:28:37.153Z,6.97
2023-04-26T05:31:15.639Z,7.53
2023-04-26T05:33:47.942Z,6.33
2023-04-26T05:36:25.208Z,6.90
2023-04-26T05:38:48.535Z,6.63
2023-04-26T05:41:10.781Z,7.80
2023-04-26T05:43:33.556Z,6.63
2023-04-26T05:45:56.635Z,6.43
2023-04-26T05:48:22.180Z,6.03
2023-04-26T05:50:44.412Z,6.83
2023-04-26T05:53:06.985Z,5.93
2023-04-26T05:55:29.487Z,5.83
2023-04-26T05:57:52.062Z,5.03
2023-04-26T06:00:15.610Z,5.00
2023-04-26T06:02:39.393Z,4.80
2023-04-26T06:05:02.005Z,4.23
2023-04-26T06:07:24.674Z,3.70
2023-04-26T06:09:46.917Z,4.10
2023-04-26T06:12:09.900Z,3.73
2023-04-26T06:14:35.762Z,3.63
2023-04-26T06:17:02.209Z,3.60
2023-04-26T06:19:24.778Z,3.30
2023-04-26T06:21:48.659Z,4.47
2023-04-26T06:24:10.921Z,3.33
2023-04-26T06:26:33.191Z,3.87
2023-04-26T06:28:55.946Z,3.60
2023-04-26T06:31:18.270Z,3.90
2023-04-26T06:33:40.577Z,3.90
2023-04-26T06:36:02.820Z,3.70
2023-04-26T06:38:25.074Z,3.57
2023-04-26T06:40:50.234Z,3.20
2023-04-26T06:43:16.302Z,3.23
2023-04-26T06:45:57.692Z,2.97
2023-04-26T06:48:20.661Z,2.60
2023-04-26T06:54:17.390Z,2.77
2023-04-26T06:56:40.453Z,3.10
2023-04-26T06:59:06.974Z,2.90
2023-04-26T07:04:20.813Z,3.03
2023-04-26T07:06:43.320Z,3.27
2023-04-26T07:09:13.316Z,3.37
2023-04-26T07:11:43.017Z,3.10
2023-04-26T07:14:31.203Z,3.30
2023-04-26T07:16:53.730Z,3.00
2023-04-26T07:19:23.379Z,2.97
2023-04-26T07:21:48.941Z,2.83
2023-04-26T07:24:13.692Z,2.53
2023-04-26T07:29:19.066Z,2.78
2023-04-26T07:31:45.581Z,2.80
2023-04-26T07:34:14.258Z,3.20
2023-04-26T07:36:37.208Z,2.80
2023-04-26T07:42:13.971Z,3.53
2023-04-26T07:44:36.632Z,3.83
2023-04-26T07:47:07.762Z,3.00
2023-04-26T07:53:32.582Z,3.95
2023-04-26T07:55:57.467Z,3.33
2023-04-26T08:01:21.980Z,3.37
2023-04-26T08:04:30.144Z,3.57
2023-04-26T08:06:53.036Z,3.13
2023-04-26T08:09:15.823Z,3.40
2023-04-26T08:11:38.339Z,3.17
2023-04-26T08:14:00.856Z,3.53
2023-04-26T08:16:23.348Z,3.70
2023-04-26T08:18:46.962Z,3.30
2023-04-26T08:21:09.431Z,3.35
2023-04-26T08:23:38.871Z,3.33
2023-04-26T08:26:01.392Z,3.58
2023-04-26T08:28:23.798Z,2.75
2023-04-26T08:30:46.733Z,3.85
2023-04-26T08:33:12.039Z,3.08
2023-04-26T08:35:34.837Z,3.42
2023-04-26T08:40:52.757Z,3.35
2023-04-26T08:41:10.631Z,3.38
2023-04-26T08:43:34.551Z,2.97
2023-04-26T08:45:56.881Z,2.80
2023-04-26T08:48:19.477Z,3.17
2023-04-26T08:50:47.264Z,3.40
2023-04-26T08:53:16.320Z,2.70
2023-04-26T08:55:38.747Z,2.63
2023-04-26T08:58:04.648Z,2.83
2023-04-26T09:00:27.485Z,2.58
2023-04-26T09:14:46.178Z,2.65
2023-04-26T09:17:25.200Z,2.47
2023-04-26T09:19:51.128Z,2.35
2023-04-26T09:22:36.833Z,3.05
2023-04-26T09:32:27.082Z,2.15
2023-04-26T09:34:49.840Z,2.53
2023-04-26T09:37:14.176Z,2.40
2023-04-26T09:40:12.093Z,2.75
2023-04-26T09:42:38.622Z,2.35
2023-04-26T09:45:13.755Z,2.70
2023-04-26T09:47:36.141Z,2.53
2023-04-26T09:50:07.853Z,3.10
2023-04-26T09:52:30.937Z,2.70
2023-04-26T09:54:54.955Z,2.47
2023-04-26T09:57:27.874Z,2.42
2023-04-26T09:59:55.420Z,2.78
2023-04-26T10:02:24.945Z,2.58
2023-04-26T10:04:52.181Z,2.42
2023-04-26T10:07:15.984Z,2.67
2023-04-26T10:09:38.662Z,2.25
2023-04-26T10:12:30.004Z,2.53
2023-04-26T10:14:55.197Z,2.30
2023-04-26T10:17:22.786Z,2.22
2023-04-26T10:19:46.597Z,2.65
2023-04-26T10:22:16.909Z,2.28
2023-04-26T10:24:40.209Z,2.30
2023-04-26T10:30:09.341Z,2.20
2023-04-26T10:32:32.370Z,2.13
2023-04-26T10:35:14.568Z,2.20
2023-04-26T10:37:37.707Z,2.65
2023-04-26T10:40:22.169Z,2.60
2023-04-26T10:42:44.559Z,2.42
2023-04-26T10:45:26.367Z,2.22
2023-04-26T10:47:51.573Z,2.50
2023-04-26T10:50:14.343Z,2.38
2023-04-26T10:53:45.698Z,2.60
2023-04-26T10:56:24.757Z,3.03
2023-04-26T10:58:47.480Z,2.08
2023-04-26T11:01:17.616Z,2.22
2023-04-26T11:03:42.012Z,2.28
2023-04-26T11:06:09.832Z,2.50
2023-04-26T11:19:01.272Z,2.53
2023-04-26T11:21:23.904Z,2.78
2023-04-26T11:23:56.383Z,2.20
2023-04-26T11:31:59.634Z,2.25
2023-04-26T11:37:54.313Z,2.55
2023-04-26T11:40:17.348Z,2.70
2023-04-26T11:42:44.250Z,2.40
2023-04-26T11:45:25.389Z,2.60
2023-04-26T11:48:53.939Z,2.40
2023-04-26T11:51:56.265Z,2.40
2023-04-26T11:55:10.729Z,2.40
2023-04-26T11:57:36.740Z,2.38
2023-04-26T12:00:15.986Z,2.55
2023-04-26T12:02:39.121Z,2.60
2023-04-26T12:05:01.841Z,2.30
2023-04-26T12:07:24.874Z,1.85
2023-04-26T12:10:24.147Z,2.30
2023-04-26T12:12:57.165Z,2.10
2023-04-26T12:18:33.021Z,2.60
2023-04-26T12:21:30.635Z,2.58
2023-04-26T12:24:37.130Z,3.03
2023-04-26T12:27:02.384Z,2.80
2023-04-26T12:29:25.103Z,2.88
2023-04-26T12:31:47.923Z,2.75
2023-04-26T12:34:14.139Z,2.83
2023-04-26T12:36:36.618Z,2.72
2023-04-26T12:38:59.105Z,3.10
2023-04-26T12:41:38.002Z,2.60
2023-04-26T12:44:00.848Z,2.50
2023-04-26T12:46:23.533Z,2.03
2023-04-26T13:00:00.408Z,2.15
2023-04-26T13:02:25.170Z,2.03
2023-04-26T13:07:34.814Z,1.80
2023-04-26T13:10:06.260Z,1.65
2023-04-26T13:12:29.327Z,1.90
2023-04-26T13:14:51.822Z,1.65
2023-04-26T13:20:35.390Z,2.20
2023-04-26T13:23:12.304Z,2.15
2023-04-26T13:26:07.701Z,1.98
2023-04-26T13:28:30.498Z,2.15
2023-04-26T13:37:04.191Z,2.35
2023-04-26T13:54:11.472Z,1.90
2023-04-26T14:09:45.366Z,2.00
2023-04-26T14:13:03.804Z,2.13
2023-04-26T14:15:22.419Z,1.73
2023-04-26T14:24:53.742Z,2.03
2023-04-26T14:27:16.560Z,2.25
2023-04-26T14:29:39.168Z,2.10
2023-04-26T14:32:02.053Z,2.22
2023-04-26T14:34:25.095Z,2.03
2023-04-26T14:36:50.863Z,2.40
2023-04-26T14:42:17.002Z,2.40
2023-04-26T14:44:41.513Z,2.03
2023-04-26T14:47:04.122Z,2.78
2023-04-26T14:49:29.537Z,2.42
2023-04-26T14:51:58.254Z,2.65
2023-04-26T14:54:24.166Z,5.30
2023-04-26T14:59:33.456Z,2.40
2023-04-26T15:04:58.033Z,1.90
2023-04-26T15:07:55.042Z,1.77
2023-04-26T15:10:20.721Z,2.22
2023-04-26T15:13:05.410Z,1.98
2023-04-26T15:15:34.399Z,1.77
2023-04-26T15:27:01.514Z,2.40
2023-04-26T15:36:34.547Z,2.17
2023-04-26T15:39:26.169Z,2.08
2023-04-26T15:41:57.904Z,1.95
2023-04-26T15:44:45.775Z,1.73
2023-04-26T15:47:17.323Z,2.20
2023-04-26T15:49:40.674Z,2.25
2023-04-26T15:52:03.594Z,2.17
2023-04-26T16:06:01.341Z,2.35
2023-04-26T16:08:39.504Z,2.22
2023-04-26T16:15:03.967Z,2.38
2023-04-26T16:17:46.665Z,2.40
2023-04-26T16:20:18.777Z,2.33
2023-04-26T16:22:49.429Z,2.20
2023-04-26T16:28:19.516Z,2.55
2023-04-26T16:28:41.692Z,2.30
2023-04-26T16:31:14.557Z,2.30
2023-04-26T16:33:39.433Z,2.28
2023-04-26T16:36:02.120Z,2.58
2023-04-26T16:38:27.476Z,2.33
2023-04-26T16:41:10.315Z,2.65
2023-04-26T16:43:43.070Z,2.20
2023-04-26T16:46:08.598Z,2.22
2023-04-26T16:48:47.093Z,2.60
2023-04-26T16:51:13.892Z,2.55
2023-04-26T16:53:56.713Z,2.67
2023-04-26T16:56:19.133Z,2.35
2023-04-26T16:58:41.545Z,1.90
2023-04-26T17:01:51.352Z,2.92
2023-04-26T17:04:14.330Z,2.15
2023-04-26T17:06:37.137Z,2.05
2023-04-26T17:08:59.580Z,2.58
2023-04-26T17:11:22.216Z,2.17
2023-04-26T17:13:49.993Z,1.90
2023-04-26T17:16:13.743Z,2.50
2023-04-26T17:18:55.992Z,2.20
2023-04-26T17:22:10.666Z,2.20
2023-04-26T17:24:48.385Z,2.60
2023-04-26T17:27:13.822Z,1.80
2023-04-26T17:29:37.712Z,1.92
2023-04-26T17:32:03.515Z,1.95
2023-04-26T17:34:26.579Z,2.13
2023-04-26T17:36:49.266Z,1.80
2023-04-26T17:39:11.691Z,2.08
2023-04-26T17:41:34.037Z,2.05
2023-04-26T17:43:58.312Z,1.58
2023-04-26T17:53:26.574Z,1.70
2023-04-26T17:55:49.530Z,2.17
2023-04-26T17:58:11.990Z,1.83
2023-04-26T18:00:36.884Z,2.40
2023-04-26T18:02:59.661Z,2.50
2023-04-26T18:05:24.334Z,2.70
2023-04-26T18:07:56.964Z,2.83
2023-04-26T18:10:19.385Z,2.40
2023-04-26T18:12:49.273Z,2.73
2023-04-26T18:15:12.343Z,2.20
2023-04-26T18:17:34.819Z,2.73
2023-04-26T18:19:57.609Z,2.60
2023-04-26T18:22:20.456Z,2.90
2023-04-26T18:24:42.778Z,3.10
2023-04-26T18:27:06.189Z,2.80
2023-04-26T18:29:29.407Z,3.47
2023-04-26T18:31:52.662Z,3.17
2023-04-26T18:34:14.971Z,3.50
2023-04-26T18:36:37.319Z,3.10
2023-04-26T18:39:00.966Z,3.03
2023-04-26T18:41:26.824Z,2.37
2023-04-26T18:43:49.317Z,2.63
2023-04-26T18:46:11.648Z,3.30
2023-04-26T18:48:33.926Z,3.00
2023-04-26T18:50:56.720Z,2.30
2023-04-26T18:53:19.409Z,2.93
2023-04-26T18:55:42.001Z,2.63
2023-04-26T18:58:04.446Z,2.70
2023-04-26T19:00:28.336Z,2.53
2023-04-26T19:02:51.149Z,2.60
2023-04-26T19:05:13.920Z,2.70
2023-04-26T19:07:36.911Z,2.60
2023-04-26T19:10:00.851Z,2.40
2023-04-26T19:12:24.068Z,2.40
2023-04-26T19:14:46.388Z,3.00
2023-04-26T19:17:08.728Z,3.00
2023-04-26T19:19:31.068Z,2.57
2023-04-26T19:21:53.406Z,2.77
2023-04-26T19:24:15.730Z,2.90
2023-04-26T19:26:38.305Z,2.77
2023-04-26T19:29:00.602Z,2.87
2023-04-26T19:31:23.484Z,2.90
2023-04-26T19:33:46.219Z,3.20
2023-04-26T19:36:10.712Z,2.90
2023-04-26T19:38:32.966Z,2.57
2023-04-26T19:40:55.225Z,2.67
2023-04-26T19:43:17.447Z,2.83
2023-04-26T19:45:41.080Z,3.10
2023-04-26T19:48:03.461Z,2.87
2023-04-26T19:50:25.972Z,2.60
2023-04-26T19:52:48.186Z,3.10
2023-04-26T19:55:10.443Z,3.50
2023-04-26T19:57:32.672Z,3.30
2023-04-26T19:59:54.940Z,3.07
2023-04-26T20:02:17.330Z,2.90
2023-04-26T20:04:39.603Z,3.37
2023-04-26T20:07:04.823Z,3.50
2023-04-26T20:09:27.094Z,3.97
2023-04-26T20:11:49.843Z,3.47
2023-04-26T20:14:12.075Z,3.90
2023-04-26T20:16:34.441Z,3.80
2023-04-26T20:18:56.919Z,3.80
2023-04-26T20:21:19.121Z,4.10
2023-04-26T20:23:41.528Z,3.70
2023-04-26T20:26:03.895Z,4.23
2023-04-26T20:28:26.636Z,3.83
2023-04-26T20:30:48.902Z,4.00
2023-04-26T20:33:11.159Z,3.43
2023-04-26T20:35:33.502Z,3.73
2023-04-26T20:37:56.028Z,3.80
2023-04-26T20:40:18.405Z,4.47
2023-04-26T20:42:41.027Z,4.03
2023-04-26T20:45:03.955Z,3.40
2023-04-26T20:47:26.382Z,3.90
2023-04-26T20:49:48.638Z,3.63
2023-04-26T20:52:10.933Z,4.10
2023-04-26T20:54:33.130Z,3.87
2023-04-26T20:56:55.495Z,3.30
2023-04-26T20:59:17.713Z,3.47
2023-04-26T21:01:39.990Z,3.80
2023-04-26T21:04:02.777Z,3.67
2023-04-26T21:06:25.473Z,3.70
2023-04-26T21:08:47.903Z,3.77
2023-04-26T21:11:10.091Z,3.70
2023-04-26T21:13:32.281Z,3.87
2023-04-26T21:15:54.546Z,3.80
2023-04-26T21:18:17.178Z,4.37
2023-04-26T21:20:39.416Z,3.83
2023-04-26T21:23:01.796Z,3.90
2023-04-26T21:25:24.013Z,4.17
2023-04-26T21:27:46.586Z,3.70
2023-04-26T21:30:09.354Z,3.50
2023-04-26T21:32:31.696Z,4.40
2023-04-26T21:34:53.909Z,4.00
2023-04-26T21:37:16.741Z,4.30
2023-04-26T21:39:39.018Z,4.23
2023-04-26T21:42:03.410Z,3.67
2023-04-26T21:44:25.769Z,4.10
2023-04-26T21:46:48.296Z,3.73
2023-04-26T21:49:10.998Z,3.90
2023-04-26T21:51:36.603Z,3.67
2023-04-26T21:53:58.840Z,4.30
2023-04-26T21:56:21.131Z,4.03
2023-04-26T21:58:43.690Z,4.67
2023-04-26T22:01:13.034Z,4.63
2023-04-26T22:03:37.956Z,5.07
2023-04-26T22:06:00.454Z,4.30
2023-04-26T22:08:24.867Z,4.90
2023-04-26T22:10:47.174Z,4.23
2023-04-26T22:13:09.606Z,5.13
2023-04-26T22:15:32.718Z,5.17
2023-04-26T22:17:55.033Z,5.17
2023-04-26T22:20:18.581Z,5.17
2023-04-26T22:22:41.140Z,5.27
2023-04-26T22:25:03.468Z,4.83
2023-04-26T22:27:25.780Z,5.13
2023-04-26T22:29:48.284Z,5.30
2023-04-26T22:32:10.626Z,4.47
2023-04-26T22:34:32.914Z,5.10
2023-04-26T22:36:59.151Z,5.37
2023-04-26T22:39:25.846Z,5.33
2023-04-26T22:41:48.033Z,5.07
2023-04-26T22:44:13.002Z,5.37
2023-04-26T22:46:35.554Z,4.80
2023-04-26T22:49:03.709Z,5.60
2023-04-26T22:51:28.899Z,5.10
2023-04-26T22:53:51.136Z,4.80
2023-04-26T22:56:13.358Z,5.57
2023-04-26T22:58:35.617Z,5.13
2023-04-26T23:00:57.957Z,5.00
2023-04-26T23:03:20.229Z,5.10
2023-04-26T23:05:43.055Z,5.30
2023-04-26T23:08:05.439Z,5.53
2023-04-26T23:10:27.730Z,5.70
2023-04-26T23:12:50.782Z,5.37
2023-04-26T23:15:13.263Z,5.20
2023-04-26T23:17:35.565Z,5.37
2023-04-26T23:20:00.035Z,5.77
2023-04-26T23:22:22.233Z,4.87
2023-04-26T23:24:44.612Z,5.70
2023-04-26T23:27:06.898Z,5.27
2023-04-26T23:29:29.072Z,5.30
2023-04-26T23:31:51.409Z,5.47
2023-04-26T23:34:13.865Z,5.20
2023-04-26T23:36:36.170Z,5.37
2023-04-26T23:38:58.391Z,5.70
2023-04-26T23:41:20.794Z,5.33
2023-04-26T23:43:43.027Z,6.10
2023-04-26T23:46:05.335Z,5.57
2023-04-26T23:48:27.790Z,5.30
2023-04-26T23:50:50.042Z,5.20
2023-04-26T23:53:12.322Z,5.73
2023-04-26T23:55:34.610Z,5.97
2023-04-26T23:57:56.927Z,6.47
